sensor_id;sensor_type;location;lat;lon;timestamp;P1;durP1;ratioP1;P2;durP2;ratioP2
39264;SDS011;42646;51.910;7.724;2023-07-13T00:01:13;3.83;;;2.05;;
39264;SDS011;42646;51.910;7.724;2023-07-13T00:03:42;5.63;;;2.10;;
39264;SDS011;42646;51.910;7.724;2023-07-13T00:06:10;4.38;;;2.33;;
39264;SDS011;42646;51.910;7.724;2023-07-13T00:08:38;3.17;;;2.00;;
39264;SDS011;42646;51.910;7.724;2023-07-13T00:11:06;4.05;;;2.10;;
39264;SDS011;42646;51.910;7.724;2023-07-13T00:13:34;4.32;;;2.28;;
39264;SDS011;42646;51.910;7.724;2023-07-13T00:16:06;4.32;;;2.10;;
39264;SDS011;42646;51.910;7.724;2023-07-13T00:18:36;4.30;;;2.00;;
39264;SDS011;42646;51.910;7.724;2023-07-13T00:21:05;5.05;;;2.05;;
39264;SDS011;42646;51.910;7.724;2023-07-13T00:23:32;4.30;;;1.73;;
39264;SDS011;42646;51.910;7.724;2023-07-13T00:26:01;3.38;;;2.00;;
39264;SDS011;42646;51.910;7.724;2023-07-13T00:28:30;5.30;;;2.35;;
39264;SDS011;42646;51.910;7.724;2023-07-13T00:30:58;5.35;;;2.35;;
39264;SDS011;42646;51.910;7.724;2023-07-13T00:33:28;3.92;;;2.05;;
39264;SDS011;42646;51.910;7.724;2023-07-13T00:35:56;3.80;;;2.00;;
39264;SDS011;42646;51.910;7.724;2023-07-13T00:38:26;4.72;;;2.22;;
39264;SDS011;42646;51.910;7.724;2023-07-13T00:40:54;4.97;;;2.20;;
39264;SDS011;42646;51.910;7.724;2023-07-13T00:43:27;3.60;;;2.13;;
39264;SDS011;42646;51.910;7.724;2023-07-13T00:48:53;4.93;;;2.20;;
39264;SDS011;42646;51.910;7.724;2023-07-13T00:51:25;4.10;;;1.85;;
39264;SDS011;42646;51.910;7.724;2023-07-13T00:54:00;4.65;;;2.20;;
39264;SDS011;42646;51.910;7.724;2023-07-13T00:56:33;5.43;;;2.28;;
39264;SDS011;42646;51.910;7.724;2023-07-13T00:59:05;5.68;;;2.38;;
39264;SDS011;42646;51.910;7.724;2023-07-13T01:01:35;6.13;;;2.08;;
39264;SDS011;42646;51.910;7.724;2023-07-13T01:04:05;7.93;;;2.40;;
39264;SDS011;42646;51.910;7.724;2023-07-13T01:06:35;6.30;;;2.45;;
39264;SDS011;42646;51.910;7.724;2023-07-13T01:09:04;5.47;;;2.35;;
39264;SDS011;42646;51.910;7.724;2023-07-13T01:11:34;4.03;;;2.55;;
39264;SDS011;42646;51.910;7.724;2023-07-13T01:14:02;3.95;;;2.28;;
39264;SDS011;42646;51.910;7.724;2023-07-13T01:16:31;3.30;;;2.30;;
39264;SDS011;42646;51.910;7.724;2023-07-13T01:19:01;4.93;;;2.47;;
39264;SDS011;42646;51.910;7.724;2023-07-13T01:21:39;4.22;;;2.40;;
39264;SDS011;42646;51.910;7.724;2023-07-13T01:24:10;3.88;;;2.17;;
39264;SDS011;42646;51.910;7.724;2023-07-13T01:26:38;4.40;;;2.15;;
39264;SDS011;42646;51.910;7.724;2023-07-13T01:29:10;5.03;;;2.15;;
39264;SDS011;42646;51.910;7.724;2023-07-13T01:31:38;3.75;;;2.03;;
39264;SDS011;42646;51.910;7.724;2023-07-13T01:34:06;4.53;;;1.98;;
39264;SDS011;42646;51.910;7.724;2023-07-13T01:36:34;5.13;;;2.50;;
39264;SDS011;42646;51.910;7.724;2023-07-13T01:39:07;6.05;;;2.45;;
39264;SDS011;42646;51.910;7.724;2023-07-13T01:41:35;6.57;;;2.35;;
39264;SDS011;42646;51.910;7.724;2023-07-13T01:44:03;5.07;;;2.60;;
39264;SDS011;42646;51.910;7.724;2023-07-13T01:46:31;4.63;;;2.30;;
39264;SDS011;42646;51.910;7.724;2023-07-13T01:49:00;5.32;;;2.50;;
39264;SDS011;42646;51.910;7.724;2023-07-13T01:51:30;5.93;;;2.78;;
39264;SDS011;42646;51.910;7.724;2023-07-13T01:53:58;4.78;;;2.60;;
39264;SDS011;42646;51.910;7.724;2023-07-13T01:56:27;4.55;;;2.40;;
39264;SDS011;42646;51.910;7.724;2023-07-13T01:58:56;4.70;;;2.50;;
39264;SDS011;42646;51.910;7.724;2023-07-13T02:01:23;4.57;;;2.40;;
39264;SDS011;42646;51.910;7.724;2023-07-13T02:03:54;4.10;;;2.15;;
39264;SDS011;42646;51.910;7.724;2023-07-13T02:06:21;4.20;;;2.30;;
39264;SDS011;42646;51.910;7.724;2023-07-13T02:09:15;6.82;;;2.67;;
39264;SDS011;42646;51.910;7.724;2023-07-13T02:11:44;4.63;;;2.45;;
39264;SDS011;42646;51.910;7.724;2023-07-13T02:14:12;6.78;;;2.47;;
39264;SDS011;42646;51.910;7.724;2023-07-13T02:16:41;4.80;;;2.47;;
39264;SDS011;42646;51.910;7.724;2023-07-13T02:19:09;5.57;;;2.70;;
39264;SDS011;42646;51.910;7.724;2023-07-13T02:21:38;4.97;;;2.53;;
39264;SDS011;42646;51.910;7.724;2023-07-13T02:24:07;5.20;;;2.72;;
39264;SDS011;42646;51.910;7.724;2023-07-13T02:26:39;3.67;;;2.55;;
39264;SDS011;42646;51.910;7.724;2023-07-13T02:29:08;5.45;;;2.53;;
39264;SDS011;42646;51.910;7.724;2023-07-13T02:31:36;5.50;;;2.42;;
39264;SDS011;42646;51.910;7.724;2023-07-13T02:34:05;5.15;;;2.50;;
39264;SDS011;42646;51.910;7.724;2023-07-13T02:36:34;5.82;;;2.53;;
39264;SDS011;42646;51.910;7.724;2023-07-13T02:39:06;5.07;;;2.70;;
39264;SDS011;42646;51.910;7.724;2023-07-13T02:41:35;5.40;;;2.65;;
39264;SDS011;42646;51.910;7.724;2023-07-13T02:44:03;3.53;;;2.28;;
39264;SDS011;42646;51.910;7.724;2023-07-13T02:46:33;6.13;;;2.70;;
39264;SDS011;42646;51.910;7.724;2023-07-13T02:49:28;5.40;;;2.90;;
39264;SDS011;42646;51.910;7.724;2023-07-13T02:51:57;4.70;;;2.88;;
39264;SDS011;42646;51.910;7.724;2023-07-13T02:54:25;4.68;;;2.88;;
39264;SDS011;42646;51.910;7.724;2023-07-13T02:56:53;6.63;;;3.20;;
39264;SDS011;42646;51.910;7.724;2023-07-13T02:59:21;6.15;;;2.90;;
39264;SDS011;42646;51.910;7.724;2023-07-13T03:01:50;7.55;;;3.10;;
39264;SDS011;42646;51.910;7.724;2023-07-13T03:04:18;7.35;;;2.65;;
39264;SDS011;42646;51.910;7.724;2023-07-13T03:06:46;6.05;;;2.90;;
39264;SDS011;42646;51.910;7.724;2023-07-13T03:09:14;5.32;;;2.58;;
39264;SDS011;42646;51.910;7.724;2023-07-13T03:11:48;5.15;;;2.60;;
39264;SDS011;42646;51.910;7.724;2023-07-13T03:14:22;4.10;;;2.30;;
39264;SDS011;42646;51.910;7.724;2023-07-13T03:16:54;5.50;;;2.70;;
39264;SDS011;42646;51.910;7.724;2023-07-13T03:19:25;4.28;;;2.80;;
39264;SDS011;42646;51.910;7.724;2023-07-13T03:21:55;5.15;;;2.58;;
39264;SDS011;42646;51.910;7.724;2023-07-13T03:24:23;4.43;;;2.35;;
39264;SDS011;42646;51.910;7.724;2023-07-13T03:26:52;5.10;;;2.70;;
39264;SDS011;42646;51.910;7.724;2023-07-13T03:29:20;5.88;;;2.50;;
39264;SDS011;42646;51.910;7.724;2023-07-13T03:31:50;4.43;;;2.47;;
39264;SDS011;42646;51.910;7.724;2023-07-13T03:34:22;4.47;;;2.40;;
39264;SDS011;42646;51.910;7.724;2023-07-13T03:39:21;5.28;;;2.35;;
39264;SDS011;42646;51.910;7.724;2023-07-13T03:41:53;4.63;;;2.30;;
39264;SDS011;42646;51.910;7.724;2023-07-13T03:44:22;4.80;;;2.35;;
39264;SDS011;42646;51.910;7.724;2023-07-13T03:46:53;5.72;;;2.17;;
39264;SDS011;42646;51.910;7.724;2023-07-13T03:49:25;3.88;;;2.20;;
39264;SDS011;42646;51.910;7.724;2023-07-13T03:51:53;3.80;;;2.00;;
39264;SDS011;42646;51.910;7.724;2023-07-13T03:54:22;4.35;;;2.15;;
39264;SDS011;42646;51.910;7.724;2023-07-13T03:56:49;4.45;;;2.28;;
39264;SDS011;42646;51.910;7.724;2023-07-13T03:59:20;4.35;;;2.22;;
39264;SDS011;42646;51.910;7.724;2023-07-13T04:01:48;4.15;;;2.10;;
39264;SDS011;42646;51.910;7.724;2023-07-13T04:04:16;5.15;;;2.33;;
39264;SDS011;42646;51.910;7.724;2023-07-13T04:06:45;4.45;;;2.22;;
39264;SDS011;42646;51.910;7.724;2023-07-13T04:09:17;5.03;;;2.20;;
39264;SDS011;42646;51.910;7.724;2023-07-13T04:12:34;5.13;;;2.50;;
39264;SDS011;42646;51.910;7.724;2023-07-13T04:15:08;5.00;;;2.30;;
39264;SDS011;42646;51.910;7.724;2023-07-13T04:17:36;5.40;;;2.10;;
39264;SDS011;42646;51.910;7.724;2023-07-13T04:20:29;5.88;;;2.38;;
39264;SDS011;42646;51.910;7.724;2023-07-13T04:23:01;6.20;;;2.20;;
39264;SDS011;42646;51.910;7.724;2023-07-13T04:25:32;6.30;;;2.30;;
39264;SDS011;42646;51.910;7.724;2023-07-13T04:28:00;4.45;;;2.20;;
39264;SDS011;42646;51.910;7.724;2023-07-13T04:30:29;5.85;;;1.90;;
39264;SDS011;42646;51.910;7.724;2023-07-13T04:32:57;6.03;;;2.47;;
39264;SDS011;42646;51.910;7.724;2023-07-13T04:35:25;3.60;;;1.83;;
39264;SDS011;42646;51.910;7.724;2023-07-13T04:37:53;4.80;;;2.05;;
39264;SDS011;42646;51.910;7.724;2023-07-13T04:40:46;5.25;;;2.25;;
39264;SDS011;42646;51.910;7.724;2023-07-13T04:43:15;4.65;;;1.92;;
39264;SDS011;42646;51.910;7.724;2023-07-13T04:45:44;4.95;;;1.85;;
39264;SDS011;42646;51.910;7.724;2023-07-13T04:48:12;3.75;;;1.70;;
39264;SDS011;42646;51.910;7.724;2023-07-13T04:50:40;4.45;;;1.85;;
39264;SDS011;42646;51.910;7.724;2023-07-13T04:53:08;4.82;;;1.90;;
39264;SDS011;42646;51.910;7.724;2023-07-13T04:55:41;4.65;;;2.03;;
39264;SDS011;42646;51.910;7.724;2023-07-13T04:58:35;3.28;;;1.80;;
39264;SDS011;42646;51.910;7.724;2023-07-13T05:01:03;5.63;;;2.00;;
39264;SDS011;42646;51.910;7.724;2023-07-13T05:03:33;5.47;;;2.10;;
39264;SDS011;42646;51.910;7.724;2023-07-13T05:06:05;4.38;;;1.98;;
39264;SDS011;42646;51.910;7.724;2023-07-13T05:08:36;4.63;;;1.88;;
39264;SDS011;42646;51.910;7.724;2023-07-13T05:11:05;4.70;;;1.88;;
39264;SDS011;42646;51.910;7.724;2023-07-13T05:13:35;5.45;;;2.00;;
39264;SDS011;42646;51.910;7.724;2023-07-13T05:16:03;7.60;;;2.67;;
39264;SDS011;42646;51.910;7.724;2023-07-13T05:18:34;5.03;;;2.10;;
39264;SDS011;42646;51.910;7.724;2023-07-13T05:21:03;4.93;;;2.10;;
39264;SDS011;42646;51.910;7.724;2023-07-13T05:23:33;5.05;;;1.80;;
39264;SDS011;42646;51.910;7.724;2023-07-13T05:26:28;5.18;;;2.00;;
39264;SDS011;42646;51.910;7.724;2023-07-13T05:28:57;5.03;;;1.88;;
39264;SDS011;42646;51.910;7.724;2023-07-13T05:31:25;4.18;;;1.83;;
39264;SDS011;42646;51.910;7.724;2023-07-13T05:33:54;5.43;;;2.55;;
39264;SDS011;42646;51.910;7.724;2023-07-13T05:36:22;6.60;;;2.15;;
39264;SDS011;42646;51.910;7.724;2023-07-13T05:41:42;5.38;;;2.47;;
39264;SDS011;42646;51.910;7.724;2023-07-13T05:44:12;4.60;;;2.10;;
39264;SDS011;42646;51.910;7.724;2023-07-13T05:46:41;6.10;;;2.10;;
39264;SDS011;42646;51.910;7.724;2023-07-13T05:49:09;5.70;;;2.15;;
39264;SDS011;42646;51.910;7.724;2023-07-13T05:51:37;8.00;;;2.17;;
39264;SDS011;42646;51.910;7.724;2023-07-13T05:54:07;4.88;;;2.20;;
39264;SDS011;42646;51.910;7.724;2023-07-13T05:56:36;5.20;;;2.17;;
39264;SDS011;42646;51.910;7.724;2023-07-13T05:59:08;7.38;;;2.38;;
39264;SDS011;42646;51.910;7.724;2023-07-13T06:01:42;7.85;;;2.22;;
39264;SDS011;42646;51.910;7.724;2023-07-13T06:04:10;5.60;;;2.35;;
39264;SDS011;42646;51.910;7.724;2023-07-13T06:09:29;5.93;;;2.15;;
39264;SDS011;42646;51.910;7.724;2023-07-13T06:11:57;6.80;;;2.78;;
39264;SDS011;42646;51.910;7.724;2023-07-13T06:14:26;7.47;;;2.60;;
39264;SDS011;42646;51.910;7.724;2023-07-13T06:16:55;6.53;;;2.30;;
39264;SDS011;42646;51.910;7.724;2023-07-13T06:19:24;6.88;;;2.50;;
39264;SDS011;42646;51.910;7.724;2023-07-13T06:22:16;7.47;;;2.60;;
39264;SDS011;42646;51.910;7.724;2023-07-13T06:24:48;6.63;;;2.17;;
39264;SDS011;42646;51.910;7.724;2023-07-13T06:27:15;8.63;;;2.95;;
39264;SDS011;42646;51.910;7.724;2023-07-13T06:29:44;7.65;;;2.78;;
39264;SDS011;42646;51.910;7.724;2023-07-13T06:32:13;8.30;;;2.83;;
39264;SDS011;42646;51.910;7.724;2023-07-13T06:34:42;7.53;;;2.85;;
39264;SDS011;42646;51.910;7.724;2023-07-13T06:37:10;6.97;;;2.60;;
39264;SDS011;42646;51.910;7.724;2023-07-13T06:39:39;6.28;;;2.45;;
39264;SDS011;42646;51.910;7.724;2023-07-13T06:42:08;8.77;;;2.97;;
39264;SDS011;42646;51.910;7.724;2023-07-13T06:44:40;9.93;;;3.08;;
39264;SDS011;42646;51.910;7.724;2023-07-13T06:47:09;7.03;;;2.90;;
39264;SDS011;42646;51.910;7.724;2023-07-13T06:49:38;8.02;;;2.67;;
39264;SDS011;42646;51.910;7.724;2023-07-13T06:52:07;6.32;;;2.60;;
39264;SDS011;42646;51.910;7.724;2023-07-13T06:54:36;7.70;;;2.63;;
39264;SDS011;42646;51.910;7.724;2023-07-13T06:57:04;6.93;;;2.50;;
39264;SDS011;42646;51.910;7.724;2023-07-13T06:59:33;9.73;;;2.90;;
39264;SDS011;42646;51.910;7.724;2023-07-13T07:02:00;8.27;;;2.85;;
39264;SDS011;42646;51.910;7.724;2023-07-13T07:04:28;6.75;;;2.75;;
39264;SDS011;42646;51.910;7.724;2023-07-13T07:06:57;7.97;;;3.00;;
39264;SDS011;42646;51.910;7.724;2023-07-13T07:09:26;9.35;;;3.03;;
39264;SDS011;42646;51.910;7.724;2023-07-13T07:11:56;8.15;;;2.60;;
39264;SDS011;42646;51.910;7.724;2023-07-13T07:14:30;5.50;;;2.30;;
39264;SDS011;42646;51.910;7.724;2023-07-13T07:16:58;5.63;;;2.20;;
39264;SDS011;42646;51.910;7.724;2023-07-13T07:19:26;6.93;;;2.40;;
39264;SDS011;42646;51.910;7.724;2023-07-13T07:21:55;10.10;;;2.55;;
39264;SDS011;42646;51.910;7.724;2023-07-13T07:24:24;7.55;;;2.42;;
39264;SDS011;42646;51.910;7.724;2023-07-13T07:26:52;6.95;;;2.00;;
39264;SDS011;42646;51.910;7.724;2023-07-13T07:29:23;4.82;;;2.47;;
39264;SDS011;42646;51.910;7.724;2023-07-13T07:31:58;6.82;;;2.20;;
39264;SDS011;42646;51.910;7.724;2023-07-13T07:34:32;7.18;;;2.35;;
39264;SDS011;42646;51.910;7.724;2023-07-13T07:37:00;5.68;;;2.05;;
39264;SDS011;42646;51.910;7.724;2023-07-13T07:39:32;6.80;;;2.05;;
39264;SDS011;42646;51.910;7.724;2023-07-13T07:42:00;7.72;;;2.40;;
39264;SDS011;42646;51.910;7.724;2023-07-13T07:44:28;7.75;;;2.20;;
39264;SDS011;42646;51.910;7.724;2023-07-13T07:46:55;8.00;;;2.30;;
39264;SDS011;42646;51.910;7.724;2023-07-13T07:49:23;10.15;;;2.67;;
39264;SDS011;42646;51.910;7.724;2023-07-13T07:51:52;4.82;;;1.70;;
39264;SDS011;42646;51.910;7.724;2023-07-13T07:54:20;4.68;;;1.98;;
39264;SDS011;42646;51.910;7.724;2023-07-13T07:57:09;4.22;;;1.67;;
39264;SDS011;42646;51.910;7.724;2023-07-13T07:59:43;5.45;;;1.98;;
39264;SDS011;42646;51.910;7.724;2023-07-13T08:02:13;5.75;;;2.13;;
39264;SDS011;42646;51.910;7.724;2023-07-13T08:05:01;5.93;;;2.35;;
39264;SDS011;42646;51.910;7.724;2023-07-13T08:07:32;6.65;;;2.33;;
39264;SDS011;42646;51.910;7.724;2023-07-13T08:10:00;5.88;;;2.05;;
39264;SDS011;42646;51.910;7.724;2023-07-13T08:12:29;5.82;;;2.20;;
39264;SDS011;42646;51.910;7.724;2023-07-13T08:15:00;4.07;;;1.98;;
39264;SDS011;42646;51.910;7.724;2023-07-13T08:17:28;3.05;;;1.90;;
39264;SDS011;42646;51.910;7.724;2023-07-13T08:19:57;5.18;;;2.00;;
39264;SDS011;42646;51.910;7.724;2023-07-13T08:22:49;4.72;;;2.17;;
39264;SDS011;42646;51.910;7.724;2023-07-13T08:25:17;6.22;;;2.45;;
39264;SDS011;42646;51.910;7.724;2023-07-13T08:27:46;5.65;;;2.35;;
39264;SDS011;42646;51.910;7.724;2023-07-13T08:30:15;6.60;;;2.50;;
39264;SDS011;42646;51.910;7.724;2023-07-13T08:32:44;9.23;;;2.70;;
39264;SDS011;42646;51.910;7.724;2023-07-13T08:35:12;7.60;;;2.60;;
39264;SDS011;42646;51.910;7.724;2023-07-13T08:37:42;5.55;;;2.33;;
39264;SDS011;42646;51.910;7.724;2023-07-13T08:40:10;7.43;;;2.22;;
39264;SDS011;42646;51.910;7.724;2023-07-13T08:42:39;6.10;;;2.35;;
39264;SDS011;42646;51.910;7.724;2023-07-13T08:45:17;8.07;;;2.67;;
39264;SDS011;42646;51.910;7.724;2023-07-13T08:47:49;7.00;;;2.47;;
39264;SDS011;42646;51.910;7.724;2023-07-13T08:50:23;9.15;;;2.65;;
39264;SDS011;42646;51.910;7.724;2023-07-13T08:52:55;5.75;;;2.40;;
39264;SDS011;42646;51.910;7.724;2023-07-13T08:55:29;6.45;;;2.70;;
39264;SDS011;42646;51.910;7.724;2023-07-13T08:58:02;5.07;;;2.25;;
39264;SDS011;42646;51.910;7.724;2023-07-13T09:00:40;5.00;;;2.22;;
39264;SDS011;42646;51.910;7.724;2023-07-13T09:03:18;5.93;;;2.30;;
39264;SDS011;42646;51.910;7.724;2023-07-13T09:05:51;5.40;;;2.40;;
39264;SDS011;42646;51.910;7.724;2023-07-13T09:08:32;5.32;;;2.47;;
39264;SDS011;42646;51.910;7.724;2023-07-13T09:11:12;7.57;;;2.67;;
39264;SDS011;42646;51.910;7.724;2023-07-13T09:13:52;5.80;;;2.13;;
39264;SDS011;42646;51.910;7.724;2023-07-13T09:16:30;5.47;;;2.20;;
39264;SDS011;42646;51.910;7.724;2023-07-13T09:19:00;7.47;;;2.70;;
39264;SDS011;42646;51.910;7.724;2023-07-13T09:21:32;6.20;;;2.60;;
39264;SDS011;42646;51.910;7.724;2023-07-13T09:24:22;8.38;;;2.85;;
39264;SDS011;42646;51.910;7.724;2023-07-13T09:29:26;7.25;;;2.70;;
39264;SDS011;42646;51.910;7.724;2023-07-13T09:31:58;5.57;;;2.40;;
39264;SDS011;42646;51.910;7.724;2023-07-13T09:34:31;8.30;;;3.17;;
39264;SDS011;42646;51.910;7.724;2023-07-13T09:37:00;5.15;;;2.55;;
39264;SDS011;42646;51.910;7.724;2023-07-13T09:39:29;6.80;;;2.70;;
39264;SDS011;42646;51.910;7.724;2023-07-13T09:42:01;8.32;;;3.05;;
39264;SDS011;42646;51.910;7.724;2023-07-13T09:44:36;5.70;;;2.90;;
39264;SDS011;42646;51.910;7.724;2023-07-13T09:47:15;10.13;;;3.58;;
39264;SDS011;42646;51.910;7.724;2023-07-13T09:49:45;6.88;;;3.08;;
39264;SDS011;42646;51.910;7.724;2023-07-13T09:52:14;7.57;;;3.65;;
39264;SDS011;42646;51.910;7.724;2023-07-13T09:54:44;5.70;;;3.30;;
39264;SDS011;42646;51.910;7.724;2023-07-13T09:57:15;6.72;;;3.70;;
39264;SDS011;42646;51.910;7.724;2023-07-13T09:59:46;5.80;;;3.78;;
39264;SDS011;42646;51.910;7.724;2023-07-13T10:02:25;6.07;;;3.67;;
39264;SDS011;42646;51.910;7.724;2023-07-13T10:04:55;9.10;;;4.63;;
39264;SDS011;42646;51.910;7.724;2023-07-13T10:07:26;8.25;;;3.85;;
39264;SDS011;42646;51.910;7.724;2023-07-13T10:09:59;8.45;;;4.00;;
39264;SDS011;42646;51.910;7.724;2023-07-13T10:12:29;8.18;;;4.35;;
39264;SDS011;42646;51.910;7.724;2023-07-13T10:15:03;7.95;;;4.18;;
39264;SDS011;42646;51.910;7.724;2023-07-13T10:17:52;7.35;;;4.70;;
39264;SDS011;42646;51.910;7.724;2023-07-13T10:20:22;6.93;;;4.55;;
39264;SDS011;42646;51.910;7.724;2023-07-13T10:22:53;9.10;;;4.88;;
39264;SDS011;42646;51.910;7.724;2023-07-13T10:25:26;7.13;;;4.72;;
39264;SDS011;42646;51.910;7.724;2023-07-13T10:28:01;9.02;;;4.63;;
39264;SDS011;42646;51.910;7.724;2023-07-13T10:30:33;8.55;;;4.60;;
39264;SDS011;42646;51.910;7.724;2023-07-13T10:33:10;7.07;;;4.22;;
39264;SDS011;42646;51.910;7.724;2023-07-13T10:35:41;9.75;;;4.55;;
39264;SDS011;42646;51.910;7.724;2023-07-13T10:38:11;9.07;;;4.00;;
39264;SDS011;42646;51.910;7.724;2023-07-13T10:40:44;7.63;;;3.78;;
39264;SDS011;42646;51.910;7.724;2023-07-13T10:43:21;7.72;;;3.80;;
39264;SDS011;42646;51.910;7.724;2023-07-13T10:45:55;5.75;;;3.17;;
39264;SDS011;42646;51.910;7.724;2023-07-13T10:48:25;5.65;;;3.33;;
39264;SDS011;42646;51.910;7.724;2023-07-13T10:50:53;9.68;;;4.20;;
39264;SDS011;42646;51.910;7.724;2023-07-13T10:53:27;5.60;;;3.20;;
39264;SDS011;42646;51.910;7.724;2023-07-13T10:55:59;5.85;;;3.30;;
39264;SDS011;42646;51.910;7.724;2023-07-13T10:58:33;5.70;;;3.63;;
39264;SDS011;42646;51.910;7.724;2023-07-13T11:01:04;6.93;;;3.35;;
39264;SDS011;42646;51.910;7.724;2023-07-13T11:03:46;6.13;;;3.60;;
39264;SDS011;42646;51.910;7.724;2023-07-13T11:06:28;6.90;;;3.75;;
39264;SDS011;42646;51.910;7.724;2023-07-13T11:09:07;6.63;;;3.78;;
39264;SDS011;42646;51.910;7.724;2023-07-13T11:11:47;6.68;;;3.35;;
39264;SDS011;42646;51.910;7.724;2023-07-13T11:20:18;5.55;;;3.08;;
39264;SDS011;42646;51.910;7.724;2023-07-13T11:22:48;5.07;;;2.90;;
39264;SDS011;42646;51.910;7.724;2023-07-13T11:25:24;6.25;;;2.90;;
39264;SDS011;42646;51.910;7.724;2023-07-13T11:28:16;4.70;;;2.63;;
39264;SDS011;42646;51.910;7.724;2023-07-13T11:30:48;5.50;;;2.58;;
39264;SDS011;42646;51.910;7.724;2023-07-13T11:33:19;5.93;;;2.45;;
39264;SDS011;42646;51.910;7.724;2023-07-13T11:35:59;6.00;;;2.15;;
39264;SDS011;42646;51.910;7.724;2023-07-13T11:38:28;4.53;;;2.33;;
39264;SDS011;42646;51.910;7.724;2023-07-13T11:41:02;5.25;;;2.10;;
39264;SDS011;42646;51.910;7.724;2023-07-13T11:43:31;4.68;;;2.10;;
39264;SDS011;42646;51.910;7.724;2023-07-13T11:46:14;6.18;;;2.30;;
39264;SDS011;42646;51.910;7.724;2023-07-13T11:48:44;4.80;;;2.70;;
39264;SDS011;42646;51.910;7.724;2023-07-13T11:51:17;9.00;;;4.80;;
39264;SDS011;42646;51.910;7.724;2023-07-13T11:53:49;7.22;;;3.45;;
39264;SDS011;42646;51.910;7.724;2023-07-13T11:56:22;5.57;;;3.08;;
39264;SDS011;42646;51.910;7.724;2023-07-13T11:58:53;5.20;;;2.50;;
39264;SDS011;42646;51.910;7.724;2023-07-13T12:01:28;5.40;;;2.53;;
39264;SDS011;42646;51.910;7.724;2023-07-13T12:03:59;4.80;;;2.20;;
39264;SDS011;42646;51.910;7.724;2023-07-13T12:06:32;6.82;;;2.33;;
39264;SDS011;42646;51.910;7.724;2023-07-13T12:09:10;5.88;;;2.33;;
39264;SDS011;42646;51.910;7.724;2023-07-13T12:11:42;5.35;;;1.77;;
39264;SDS011;42646;51.910;7.724;2023-07-13T12:14:35;5.60;;;2.30;;
39264;SDS011;42646;51.910;7.724;2023-07-13T12:17:04;5.47;;;2.10;;
39264;SDS011;42646;51.910;7.724;2023-07-13T12:19:38;3.53;;;1.98;;
39264;SDS011;42646;51.910;7.724;2023-07-13T12:22:10;6.50;;;2.17;;
39264;SDS011;42646;51.910;7.724;2023-07-13T12:24:41;5.82;;;1.70;;
39264;SDS011;42646;51.910;7.724;2023-07-13T12:27:16;3.72;;;1.75;;
39264;SDS011;42646;51.910;7.724;2023-07-13T12:29:50;4.25;;;1.90;;
39264;SDS011;42646;51.910;7.724;2023-07-13T12:32:21;5.75;;;1.90;;
39264;SDS011;42646;51.910;7.724;2023-07-13T12:34:51;5.75;;;2.40;;
39264;SDS011;42646;51.910;7.724;2023-07-13T12:37:23;4.38;;;1.88;;
39264;SDS011;42646;51.910;7.724;2023-07-13T12:39:52;4.55;;;2.00;;
39264;SDS011;42646;51.910;7.724;2023-07-13T12:42:22;5.85;;;2.10;;
39264;SDS011;42646;51.910;7.724;2023-07-13T12:47:24;4.55;;;2.17;;
39264;SDS011;42646;51.910;7.724;2023-07-13T12:49:53;4.82;;;2.10;;
39264;SDS011;42646;51.910;7.724;2023-07-13T12:52:28;5.85;;;2.33;;
39264;SDS011;42646;51.910;7.724;2023-07-13T12:54:58;4.38;;;2.00;;
39264;SDS011;42646;51.910;7.724;2023-07-13T12:57:37;4.82;;;2.28;;
39264;SDS011;42646;51.910;7.724;2023-07-13T13:00:09;7.15;;;2.25;;
39264;SDS011;42646;51.910;7.724;2023-07-13T13:02:48;4.30;;;2.03;;
39264;SDS011;42646;51.910;7.724;2023-07-13T13:07:51;5.85;;;1.90;;
39264;SDS011;42646;51.910;7.724;2023-07-13T13:10:20;4.78;;;2.22;;
39264;SDS011;42646;51.910;7.724;2023-07-13T13:12:49;7.15;;;2.58;;
39264;SDS011;42646;51.910;7.724;2023-07-13T13:15:18;4.60;;;2.13;;
39264;SDS011;42646;51.910;7.724;2023-07-13T13:17:49;5.32;;;2.40;;
39264;SDS011;42646;51.910;7.724;2023-07-13T13:20:18;5.03;;;2.17;;
39264;SDS011;42646;51.910;7.724;2023-07-13T13:22:50;3.40;;;1.90;;
39264;SDS011;42646;51.910;7.724;2023-07-13T13:25:18;4.63;;;1.88;;
39264;SDS011;42646;51.910;7.724;2023-07-13T13:27:47;5.10;;;2.10;;
39264;SDS011;42646;51.910;7.724;2023-07-13T13:30:16;5.65;;;2.10;;
39264;SDS011;42646;51.910;7.724;2023-07-13T13:32:45;6.70;;;2.22;;
39264;SDS011;42646;51.910;7.724;2023-07-13T13:35:16;5.03;;;2.42;;
39264;SDS011;42646;51.910;7.724;2023-07-13T13:38:11;6.35;;;2.42;;
39264;SDS011;42646;51.910;7.724;2023-07-13T13:40:40;4.07;;;2.00;;
39264;SDS011;42646;51.910;7.724;2023-07-13T13:43:18;4.93;;;1.77;;
39264;SDS011;42646;51.910;7.724;2023-07-13T13:45:52;5.10;;;1.75;;
39264;SDS011;42646;51.910;7.724;2023-07-13T13:48:26;4.07;;;2.00;;
39264;SDS011;42646;51.910;7.724;2023-07-13T13:50:58;5.10;;;1.90;;
39264;SDS011;42646;51.910;7.724;2023-07-13T13:53:29;3.78;;;2.20;;
39264;SDS011;42646;51.910;7.724;2023-07-13T13:55:57;3.92;;;1.98;;
39264;SDS011;42646;51.910;7.724;2023-07-13T13:58:26;5.30;;;2.22;;
39264;SDS011;42646;51.910;7.724;2023-07-13T14:00:54;4.90;;;2.22;;
39264;SDS011;42646;51.910;7.724;2023-07-13T14:03:22;4.95;;;2.38;;
39264;SDS011;42646;51.910;7.724;2023-07-13T14:05:50;4.32;;;2.13;;
39264;SDS011;42646;51.910;7.724;2023-07-13T14:08:19;7.00;;;2.40;;
39264;SDS011;42646;51.910;7.724;2023-07-13T14:11:14;4.75;;;2.45;;
39264;SDS011;42646;51.910;7.724;2023-07-13T14:13:44;4.25;;;2.13;;
39264;SDS011;42646;51.910;7.724;2023-07-13T14:16:17;4.18;;;1.95;;
39264;SDS011;42646;51.910;7.724;2023-07-13T14:21:17;4.40;;;1.90;;
39264;SDS011;42646;51.910;7.724;2023-07-13T14:23:47;4.10;;;1.77;;
39264;SDS011;42646;51.910;7.724;2023-07-13T14:26:24;2.95;;;1.80;;
39264;SDS011;42646;51.910;7.724;2023-07-13T14:28:55;3.42;;;1.85;;
39264;SDS011;42646;51.910;7.724;2023-07-13T14:31:26;3.10;;;1.75;;
39264;SDS011;42646;51.910;7.724;2023-07-13T14:33:57;3.72;;;1.90;;
39264;SDS011;42646;51.910;7.724;2023-07-13T14:36:27;3.15;;;1.80;;
39264;SDS011;42646;51.910;7.724;2023-07-13T14:38:57;3.20;;;1.70;;
39264;SDS011;42646;51.910;7.724;2023-07-13T14:41:26;3.33;;;1.60;;
39264;SDS011;42646;51.910;7.724;2023-07-13T14:43:55;3.17;;;1.77;;
39264;SDS011;42646;51.910;7.724;2023-07-13T14:46:26;3.05;;;1.90;;
39264;SDS011;42646;51.910;7.724;2023-07-13T14:49:00;3.72;;;1.75;;
39264;SDS011;42646;51.910;7.724;2023-07-13T14:51:31;3.60;;;2.10;;
39264;SDS011;42646;51.910;7.724;2023-07-13T14:54:02;4.10;;;2.00;;
39264;SDS011;42646;51.910;7.724;2023-07-13T14:59:02;3.83;;;1.85;;
39264;SDS011;42646;51.910;7.724;2023-07-13T15:01:31;3.72;;;2.00;;
39264;SDS011;42646;51.910;7.724;2023-07-13T15:03:59;3.55;;;1.90;;
39264;SDS011;42646;51.910;7.724;2023-07-13T15:06:27;3.22;;;1.63;;
39264;SDS011;42646;51.910;7.724;2023-07-13T15:08:55;3.22;;;1.70;;
39264;SDS011;42646;51.910;7.724;2023-07-13T15:11:22;3.63;;;1.80;;
39264;SDS011;42646;51.910;7.724;2023-07-13T15:13:52;2.88;;;1.65;;
39264;SDS011;42646;51.910;7.724;2023-07-13T15:16:21;2.70;;;1.50;;
39264;SDS011;42646;51.910;7.724;2023-07-13T15:18:50;3.45;;;1.70;;
39264;SDS011;42646;51.910;7.724;2023-07-13T15:21:21;2.30;;;1.50;;
39264;SDS011;42646;51.910;7.724;2023-07-13T15:23:51;2.40;;;1.60;;
39264;SDS011;42646;51.910;7.724;2023-07-13T15:26:19;3.47;;;1.77;;
39264;SDS011;42646;51.910;7.724;2023-07-13T15:28:51;3.33;;;1.83;;
39264;SDS011;42646;51.910;7.724;2023-07-13T15:31:20;3.08;;;1.65;;
39264;SDS011;42646;51.910;7.724;2023-07-13T15:33:49;3.38;;;1.80;;
39264;SDS011;42646;51.910;7.724;2023-07-13T15:36:18;4.60;;;1.80;;
39264;SDS011;42646;51.910;7.724;2023-07-13T15:38:50;3.17;;;1.67;;
39264;SDS011;42646;51.910;7.724;2023-07-13T15:43:52;3.28;;;1.88;;
39264;SDS011;42646;51.910;7.724;2023-07-13T15:48:52;3.17;;;1.80;;